Hansville, WA (98340)

5:30 AM PDT on September 22, 2014 (GMT -0700)
Driftwood Key | Change Station
CLOSE
Current Station
Personal Weather Station
Location: Hansville, WA
Elevation: 154 ft
Nearby Weather Stations

Elev 154 ft 47.91 °N, 122.58 °W | Updated 4 seconds ago

Overcast
Overcast
59.7 °F
Feels Like 59.7 °F
N
14.1
Wind Variable Wind from NNW
Gusts 28.4 mph

Today
High -- | Low -- °F
--% Chance of Precip.
Yesterday
High -- | Low -- °F
Precip. -- in
6:57 AM 7:07 PM
Waning Crescent, 3% visible
Pressure 29.96 in
Visibility 10.0 miles
Clouds Scattered Clouds 2300 ft
Dew Point 56 °F
Humidity 89%
Rainfall 0.00 in
Snow Depth 0 in , 0 in , 0 in
UV 0 out of 12
Pollen 1.40 out of 12
Air Quality Not available.
Flu Activity Not available.
METAR KPAE 221153Z AUTO 17010KT 10SM SCT023 17/13 A2997 RMK AO2 SLP144 T01670133 10167 20150 53005

More Conditions Fewer Conditions

Pressure 29.96 in
Visibility 10.0 miles
Clouds Scattered Clouds 2300 ft
Dew Point 56 °F
Humidity 89%
Rainfall 0.00 in
Snow Depth 0 in , 0 in , 0 in
UV 0 out of 12
Pollen 1.40 out of 12
Air Quality Not available.
Flu Activity Not available.
METAR KPAE 221153Z AUTO 17010KT 10SM SCT023 17/13 A2997 RMK AO2 SLP144 T01670133 10167 20150 53005

More Conditions Fewer Conditions

10-Day Weather Forecast

Almanac

Astronomy

Sep. 22, 2014 Rise Set
Actual Time 6:57 AM PDT 7:07 PM PDT
Civil Twilight 6:26 AM PDT 7:38 PM PDT
Nautical Twilight 5:49 AM PDT 8:15 PM PDT
Astronomical Twilight 5:12 AM PDT 8:52 PM PDT
Moon 5:26 AM PDT 6:20 PM PDT
Length of Visible Light 13h 12m
Length of Day
12h 10m
Tomorrow will be 3m 26s shorter.
Waning Crescent, 3% of the Moon is Illuminated
Today
Waning Crescent
Sep 24
New
Oct 1
First Quarter
Oct 8
Full
Oct 15
Last Quarter

Today's Extremes

State Highs State Lows

Community

WunderPhotos

Upload Photos

1,755,420 photos uploaded!

WunderBlogs® & News

Nearby

Air Quality

  Air Quality AQ Index Pollutant
Monday Good
OZONE
Monday Good
PM2.5
Tuesday Good
OZONE
Tuesday Good
PM2.5

Snow Depth

Station Depth Elevation
Meadows Pass 0 in 3500 ft
Swift Creek 0 in 3770 ft
Sourdough Gulch 0 in 4000 ft
Lone Pine 0 in 3800 ft
Quartz Peak 1 in 4700 ft

Earthquake Activity

City Distance Mag. Time & Date
No recent earthquake activity has been reported nearby.
Minimum magnitude displayed is 2.5.

Coastal Water Temperatures

Place Temperature
Port Townsend, WA 53.1 °F
Seattle, WA 55.9 °F
Friday Harbor, WA 52.0 °F
Tacoma, WA 55.9 °F

Nearby Weather Stations